Time;durP1;ratioP1;P1;durP2;ratioP2;P2;SDS_P1;SDS_P2;PMS_P1;PMS_P2;Temp;Humidity;BMP_temperature;BMP_pressure;BME280_temperature;BME280_humidity;BME280_pressure;Samples;Min_cycle;Max_cycle;Signal;HPM_P1;HPM_P2
2024/01/02 00:01:28;;;;;;;1.00;0.70;;;;;;;;;;6257661;22;20456;-91
2024/01/02 00:03:54;;;;;;;3.37;3.17;;;;;;;;;;6257101;22;20770;-90
2024/01/02 00:06:19;;;;;;;1.60;0.87;;;;;;;;;;6257116;22;20389;-90
2024/01/02 00:08:46;;;;;;;2.93;1.00;;;;;;;;;;6259766;22;20432;-90
2024/01/02 00:11:12;;;;;;;0.90;0.70;;;;;;;;;;6257513;22;20504;-91
2024/01/02 00:13:38;;;;;;;1.83;0.87;;;;;;;;;;6258525;22;20399;-90
2024/01/02 00:16:04;;;;;;;3.63;1.33;;;;;;;;;;6258669;22;20381;-90
2024/01/02 00:18:30;;;;;;;1.63;1.33;;;;;;;;;;6258018;22;20472;-91
2024/01/02 00:20:56;;;;;;;2.93;0.80;;;;;;;;;;6257335;22;20377;-90
2024/01/02 00:23:22;;;;;;;1.87;1.23;;;;;;;;;;6283394;22;20393;-90
2024/01/02 00:25:50;;;;;;;1.70;1.00;;;;;;;;;;6255873;22;20410;-91
2024/01/02 00:28:17;;;;;;;1.90;0.90;;;;;;;;;;6256561;22;20433;-91
2024/01/02 00:30:44;;;;;;;2.10;0.97;;;;;;;;;;6284068;22;20504;-90
2024/01/02 00:33:11;;;;;;;1.63;0.70;;;;;;;;;;6257496;22;20377;-92
2024/01/02 00:35:37;;;;;;;1.90;0.83;;;;;;;;;;6259899;22;20377;-91
2024/01/02 00:38:03;;;;;;;0.80;0.70;;;;;;;;;;6255126;22;20389;-90
2024/01/02 00:40:29;;;;;;;4.77;1.77;;;;;;;;;;6261967;22;20883;-92
2024/01/02 00:42:55;;;;;;;1.37;1.10;;;;;;;;;;6256863;22;20381;-91
2024/01/02 00:45:21;;;;;;;2.73;0.90;;;;;;;;;;6259457;22;20777;-92
2024/01/02 00:47:48;;;;;;;2.40;1.13;;;;;;;;;;6259565;22;20377;-91
2024/01/02 00:50:14;;;;;;;1.07;0.83;;;;;;;;;;6260628;22;20828;-90
2024/01/02 00:52:40;;;;;;;1.73;0.80;;;;;;;;;;6259067;22;20388;-91
2024/01/02 00:55:07;;;;;;;1.60;1.17;;;;;;;;;;6258821;22;20385;-91
2024/01/02 00:57:33;;;;;;;3.53;1.30;;;;;;;;;;6257892;22;20388;-91
2024/01/02 00:59:59;;;;;;;0.97;0.87;;;;;;;;;;6259804;22;20381;-90
2024/01/02 01:02:25;;;;;;;2.03;1.20;;;;;;;;;;6259262;22;20393;-91
2024/01/02 01:04:51;;;;;;;1.30;0.80;;;;;;;;;;6259448;22;20388;-90
2024/01/02 01:07:17;;;;;;;0.80;0.73;;;;;;;;;;6259542;22;20383;-90
2024/01/02 01:09:43;;;;;;;1.50;0.93;;;;;;;;;;6258158;22;20527;-91
2024/01/02 01:12:09;;;;;;;3.30;1.10;;;;;;;;;;6260700;22;20385;-91
2024/01/02 01:14:35;;;;;;;2.87;1.20;;;;;;;;;;6255402;22;20372;-91
2024/01/02 01:17:03;;;;;;;0.67;0.60;;;;;;;;;;6257124;22;20400;-90
2024/01/02 01:19:29;;;;;;;3.80;1.47;;;;;;;;;;6256060;22;20385;-92
2024/01/02 01:21:55;;;;;;;2.20;1.17;;;;;;;;;;6255882;22;20381;-93
2024/01/02 01:24:21;;;;;;;1.20;0.80;;;;;;;;;;6256042;22;20424;-94
2024/01/02 01:26:52;;;;;;;3.17;1.03;;;;;;;;;;6257730;22;20381;-94
2024/01/02 01:29:20;;;;;;;0.70;0.70;;;;;;;;;;6257570;22;20468;-95
2024/01/02 01:31:46;;;;;;;1.83;1.03;;;;;;;;;;6259587;22;20469;-94
2024/01/02 01:34:12;;;;;;;2.20;1.17;;;;;;;;;;6258302;22;20438;-93
2024/01/02 01:36:38;;;;;;;1.40;0.97;;;;;;;;;;6258808;22;20846;-94
2024/01/02 01:39:07;;;;;;;4.17;0.80;;;;;;;;;;6259325;22;20373;-93
2024/01/02 01:41:33;;;;;;;1.13;0.77;;;;;;;;;;6260584;22;20389;-95
2024/01/02 01:43:59;;;;;;;3.93;0.87;;;;;;;;;;6262232;22;20385;-94
2024/01/02 01:46:34;;;;;;;2.27;0.80;;;;;;;;;;6258463;22;20867;-93
2024/01/02 01:49:00;;;;;;;1.50;1.27;;;;;;;;;;6259194;22;20369;-93
2024/01/02 01:51:26;;;;;;;2.90;2.20;;;;;;;;;;6256691;22;20377;-94
2024/01/02 01:53:53;;;;;;;1.40;0.80;;;;;;;;;;6258255;22;20742;-93
2024/01/02 01:56:19;;;;;;;5.37;1.20;;;;;;;;;;6256472;22;20373;-93
2024/01/02 01:58:45;;;;;;;1.77;0.80;;;;;;;;;;6260166;22;20369;-94
2024/01/02 02:01:11;;;;;;;1.67;1.00;;;;;;;;;;6259356;22;20384;-96
2024/01/02 02:03:37;;;;;;;1.00;0.80;;;;;;;;;;6263278;22;20377;-92
2024/01/02 02:06:03;;;;;;;6.83;1.10;;;;;;;;;;6259506;22;20425;-95
2024/01/02 02:08:29;;;;;;;1.47;0.80;;;;;;;;;;6260339;22;20577;-95
2024/01/02 02:10:55;;;;;;;2.20;0.90;;;;;;;;;;6261711;22;20432;-94
2024/01/02 02:13:21;;;;;;;0.73;0.73;;;;;;;;;;6263088;22;20381;-94
2024/01/02 02:15:49;;;;;;;1.53;0.73;;;;;;;;;;6262144;22;20404;-93
2024/01/02 02:18:15;;;;;;;2.27;0.90;;;;;;;;;;6261366;22;20520;-94
2024/01/02 02:20:41;;;;;;;1.43;0.60;;;;;;;;;;6261639;22;20381;-94
2024/01/02 02:23:07;;;;;;;2.17;1.07;;;;;;;;;;6262047;22;20783;-95
2024/01/02 02:25:33;;;;;;;1.00;0.87;;;;;;;;;;6262106;22;20427;-93
2024/01/02 02:27:59;;;;;;;1.87;0.93;;;;;;;;;;6260518;22;20410;-95
2024/01/02 02:30:25;;;;;;;0.67;0.67;;;;;;;;;;6263455;22;20401;-93
2024/01/02 02:32:51;;;;;;;0.70;0.70;;;;;;;;;;6262672;22;20733;-94
2024/01/02 02:35:18;;;;;;;2.90;0.73;;;;;;;;;;6269259;22;20397;-95
2024/01/02 02:37:45;;;;;;;1.27;0.73;;;;;;;;;;6263248;22;20389;-95
2024/01/02 02:40:11;;;;;;;0.90;0.90;;;;;;;;;;6261829;22;20384;-93
2024/01/02 02:42:37;;;;;;;0.83;0.80;;;;;;;;;;6260187;22;20924;-95
2024/01/02 02:45:05;;;;;;;0.90;0.60;;;;;;;;;;6262747;22;20381;-94
2024/01/02 02:47:31;;;;;;;1.13;1.00;;;;;;;;;;6261290;22;20450;-94
2024/01/02 02:49:57;;;;;;;1.10;1.00;;;;;;;;;;6260941;22;20464;-94
2024/01/02 02:52:23;;;;;;;2.40;0.90;;;;;;;;;;6260170;22;20392;-96
2024/01/02 02:54:49;;;;;;;2.50;0.87;;;;;;;;;;6260949;22;20365;-95
2024/01/02 02:57:15;;;;;;;1.00;0.80;;;;;;;;;;6259806;22;20384;-93
2024/01/02 02:59:41;;;;;;;0.93;0.80;;;;;;;;;;6259476;22;20401;-94
2024/01/02 03:02:07;;;;;;;2.90;0.70;;;;;;;;;;6257587;22;20374;-95
2024/01/02 03:04:34;;;;;;;1.53;1.10;;;;;;;;;;6261422;22;20398;-94
2024/01/02 03:07:00;;;;;;;1.23;0.93;;;;;;;;;;6259711;22;20389;-95
2024/01/02 03:09:26;;;;;;;3.87;1.00;;;;;;;;;;6258304;22;20431;-95
2024/01/02 03:11:52;;;;;;;2.80;0.73;;;;;;;;;;6260523;22;20404;-94
2024/01/02 03:14:18;;;;;;;1.00;0.83;;;;;;;;;;6257890;22;20397;-94
2024/01/02 03:16:44;;;;;;;0.87;0.70;;;;;;;;;;6261402;22;20393;-94
2024/01/02 03:19:10;;;;;;;1.10;0.77;;;;;;;;;;6258262;22;20397;-95
2024/01/02 03:21:36;;;;;;;1.03;0.93;;;;;;;;;;6260108;22;20470;-94
2024/01/02 03:24:02;;;;;;;0.73;0.73;;;;;;;;;;6258320;22;20464;-95
2024/01/02 03:26:28;;;;;;;0.87;0.70;;;;;;;;;;6260365;22;20370;-94
2024/01/02 03:28:54;;;;;;;2.50;0.90;;;;;;;;;;6260459;22;20435;-95
2024/01/02 03:31:20;;;;;;;0.93;0.70;;;;;;;;;;6285894;22;20408;-95
2024/01/02 03:33:47;;;;;;;0.87;0.70;;;;;;;;;;6257738;22;20857;-94
2024/01/02 03:36:19;;;;;;;0.90;0.90;;;;;;;;;;6261437;22;20377;-95
2024/01/02 03:38:46;;;;;;;0.70;0.60;;;;;;;;;;6258824;22;20372;-95
2024/01/02 03:41:12;;;;;;;1.27;0.80;;;;;;;;;;6262795;22;20389;-96
2024/01/02 03:43:38;;;;;;;2.70;0.87;;;;;;;;;;6259742;22;20385;-95
2024/01/02 03:46:05;;;;;;;0.80;0.63;;;;;;;;;;6257487;22;20763;-93
2024/01/02 03:48:31;;;;;;;2.13;0.90;;;;;;;;;;6282252;22;20365;-94
2024/01/02 03:50:57;;;;;;;0.90;0.83;;;;;;;;;;6264798;22;20428;-95
2024/01/02 03:53:23;;;;;;;2.67;1.60;;;;;;;;;;6260019;22;20488;-93
2024/01/02 03:55:49;;;;;;;1.07;0.93;;;;;;;;;;6259569;22;20381;-94
2024/01/02 03:58:15;;;;;;;0.70;0.60;;;;;;;;;;6260230;22;20399;-94
2024/01/02 04:00:41;;;;;;;0.60;0.57;;;;;;;;;;6260550;22;20381;-96
2024/01/02 04:03:07;;;;;;;0.70;0.60;;;;;;;;;;6263066;22;20378;-94
2024/01/02 04:05:33;;;;;;;0.60;0.60;;;;;;;;;;6260747;22;20434;-94
2024/01/02 04:07:59;;;;;;;1.57;0.90;;;;;;;;;;6260572;22;20390;-93
2024/01/02 04:10:26;;;;;;;1.30;0.80;;;;;;;;;;6283312;22;20933;-95
2024/01/02 04:12:52;;;;;;;1.10;1.00;;;;;;;;;;6286706;22;20397;-92
2024/01/02 04:15:18;;;;;;;2.70;1.10;;;;;;;;;;6258796;22;20384;-95
2024/01/02 04:17:44;;;;;;;0.60;0.50;;;;;;;;;;6261020;22;20392;-95
2024/01/02 04:20:10;;;;;;;1.07;0.77;;;;;;;;;;6257902;22;20388;-95
2024/01/02 04:22:37;;;;;;;0.83;0.73;;;;;;;;;;6266788;22;21007;-94
2024/01/02 04:25:03;;;;;;;1.20;0.70;;;;;;;;;;6262363;22;20396;-94
2024/01/02 04:27:29;;;;;;;0.60;0.53;;;;;;;;;;6262971;22;20404;-95
2024/01/02 04:29:55;;;;;;;0.90;0.60;;;;;;;;;;6262883;22;20427;-94
2024/01/02 04:32:22;;;;;;;0.60;0.50;;;;;;;;;;6286944;22;20952;-93
2024/01/02 04:34:48;;;;;;;1.37;0.87;;;;;;;;;;6263517;22;20389;-94
2024/01/02 04:37:23;;;;;;;0.80;0.70;;;;;;;;;;6293011;22;20388;-93
2024/01/02 04:39:49;;;;;;;1.30;0.70;;;;;;;;;;6236550;22;20353;-93
2024/01/02 04:42:17;;;;;;;0.73;0.70;;;;;;;;;;6263612;22;20373;-94
2024/01/02 04:44:46;;;;;;;0.60;0.60;;;;;;;;;;6267369;22;20386;-94
2024/01/02 04:47:13;;;;;;;0.80;0.70;;;;;;;;;;6271893;22;20407;-93
2024/01/02 04:49:39;;;;;;;0.70;0.70;;;;;;;;;;6238798;22;20461;-94
2024/01/02 04:52:08;;;;;;;1.13;0.70;;;;;;;;;;6237451;23;20430;-94
2024/01/02 04:54:40;;;;;;;0.77;0.77;;;;;;;;;;6236453;23;20387;-94
2024/01/02 04:57:06;;;;;;;0.80;0.60;;;;;;;;;;6239347;23;20355;-93
2024/01/02 05:04:55;;;;;;;0.70;0.70;;;;;;;;;;6233600;22;20432;-94
2024/01/02 05:08:08;;;;;;;0.70;0.60;;;;;;;;;;6268761;22;20392;-94
2024/01/02 05:10:53;;;;;;;0.80;0.60;;;;;;;;;;6177313;23;20471;-94
2024/01/02 05:13:19;;;;;;;0.87;0.87;;;;;;;;;;6236221;22;20444;-93
2024/01/02 05:15:47;;;;;;;0.60;0.57;;;;;;;;;;6240971;22;20531;-94
2024/01/02 05:18:14;;;;;;;0.93;0.60;;;;;;;;;;6270778;22;20380;-94
2024/01/02 05:20:47;;;;;;;1.40;0.87;;;;;;;;;;6270990;22;20456;-93
2024/01/02 05:23:24;;;;;;;2.93;0.80;;;;;;;;;;6297344;22;20360;-94
2024/01/02 05:25:53;;;;;;;1.10;1.00;;;;;;;;;;6268654;22;20377;-94
2024/01/02 05:28:30;;;;;;;0.90;0.87;;;;;;;;;;6215452;22;20444;-93
2024/01/02 05:30:59;;;;;;;0.93;0.80;;;;;;;;;;6241211;22;20441;-93
2024/01/02 05:33:25;;;;;;;1.63;0.80;;;;;;;;;;6241227;22;20382;-95
2024/01/02 05:38:30;;;;;;;1.70;0.97;;;;;;;;;;6293699;22;20455;-94
2024/01/02 05:41:02;;;;;;;0.80;0.80;;;;;;;;;;6296085;22;20424;-93
2024/01/02 05:43:28;;;;;;;1.20;0.70;;;;;;;;;;6242193;22;20386;-94
2024/01/02 05:45:55;;;;;;;0.87;0.77;;;;;;;;;;6184783;23;20375;-95
2024/01/02 05:48:22;;;;;;;0.80;0.77;;;;;;;;;;6209390;23;20375;-95
2024/01/02 05:50:48;;;;;;;0.70;0.70;;;;;;;;;;6206343;23;20438;-92
2024/01/02 05:53:14;;;;;;;1.23;0.87;;;;;;;;;;6204309;22;20386;-91
2024/01/02 05:55:40;;;;;;;1.93;0.77;;;;;;;;;;6205142;23;20386;-94
2024/01/02 05:58:07;;;;;;;1.83;0.70;;;;;;;;;;6205292;22;20415;-94
2024/01/02 06:00:34;;;;;;;5.40;1.43;;;;;;;;;;6231509;22;20419;-93
2024/01/02 06:03:00;;;;;;;0.60;0.60;;;;;;;;;;6206551;22;20375;-93
2024/01/02 06:05:26;;;;;;;1.13;0.83;;;;;;;;;;6201136;23;20520;-87
2024/01/02 06:07:52;;;;;;;1.03;0.93;;;;;;;;;;6216068;23;20365;-93
2024/01/02 06:10:18;;;;;;;2.10;0.93;;;;;;;;;;6202730;23;20927;-93
2024/01/02 06:12:44;;;;;;;0.80;0.80;;;;;;;;;;6205944;23;20378;-92
2024/01/02 06:20:21;;;;;;;1.63;0.83;;;;;;;;;;6292545;22;20416;-94
2024/01/02 06:22:48;;;;;;;1.03;0.70;;;;;;;;;;6264751;22;20643;-93
2024/01/02 06:25:13;;;;;;;3.23;1.30;;;;;;;;;;6265264;22;20997;-92
2024/01/02 06:27:40;;;;;;;1.90;0.77;;;;;;;;;;6290530;22;20373;-93
2024/01/02 06:30:07;;;;;;;0.70;0.70;;;;;;;;;;6261758;22;20417;-93
2024/01/02 06:32:34;;;;;;;1.17;1.07;;;;;;;;;;6259345;22;20381;-92
2024/01/02 06:35:00;;;;;;;0.80;0.73;;;;;;;;;;6258891;22;20385;-93
2024/01/02 06:37:26;;;;;;;0.90;0.80;;;;;;;;;;6261631;22;20404;-93
2024/01/02 06:39:52;;;;;;;1.30;1.20;;;;;;;;;;6258441;22;20378;-93
2024/01/02 06:42:18;;;;;;;1.13;0.90;;;;;;;;;;6257689;22;20373;-93
2024/01/02 06:44:44;;;;;;;0.70;0.70;;;;;;;;;;6258158;22;20373;-93
2024/01/02 06:47:10;;;;;;;1.10;0.87;;;;;;;;;;6261499;22;20396;-94
2024/01/02 06:49:36;;;;;;;0.70;0.57;;;;;;;;;;6257883;22;20505;-93
2024/01/02 06:52:02;;;;;;;1.63;0.70;;;;;;;;;;6257833;22;20370;-93
2024/01/02 06:54:28;;;;;;;2.20;1.23;;;;;;;;;;6257846;22;20472;-93
2024/01/02 06:56:54;;;;;;;0.80;0.70;;;;;;;;;;6258996;22;20381;-93
2024/01/02 06:59:20;;;;;;;0.70;0.70;;;;;;;;;;6258629;22;20372;-92
2024/01/02 07:01:46;;;;;;;0.60;0.60;;;;;;;;;;6258125;22;20384;-93
2024/01/02 07:04:12;;;;;;;0.87;0.87;;;;;;;;;;6260758;22;20401;-93
2024/01/02 07:06:38;;;;;;;1.63;0.73;;;;;;;;;;6255731;22;20382;-93
2024/01/02 07:09:04;;;;;;;1.13;0.77;;;;;;;;;;6259677;22;20425;-92
2024/01/02 07:11:40;;;;;;;0.77;0.73;;;;;;;;;;6297595;22;20389;-96
2024/01/02 07:24:42;;;;;;;0.60;0.60;;;;;;;;;;6285203;22;20432;-91
2024/01/02 07:27:08;;;;;;;0.97;0.87;;;;;;;;;;6255461;22;20809;-92
2024/01/02 07:29:34;;;;;;;0.70;0.50;;;;;;;;;;6258427;22;20567;-92
2024/01/02 07:32:00;;;;;;;1.50;0.90;;;;;;;;;;6255524;22;20432;-92
2024/01/02 07:34:26;;;;;;;1.17;0.70;;;;;;;;;;6259039;22;20378;-91
2024/01/02 07:36:52;;;;;;;1.17;0.80;;;;;;;;;;6257049;22;20878;-93
2024/01/02 07:39:18;;;;;;;0.70;0.70;;;;;;;;;;6261762;22;20409;-92
2024/01/02 07:41:45;;;;;;;1.33;0.90;;;;;;;;;;6258055;22;20357;-93
2024/01/02 07:44:11;;;;;;;1.10;0.90;;;;;;;;;;6259308;22;20473;-93
2024/01/02 07:46:37;;;;;;;0.60;0.60;;;;;;;;;;6258318;22;20377;-93
2024/01/02 07:49:03;;;;;;;1.00;0.90;;;;;;;;;;6261639;22;20373;-88
2024/01/02 07:51:28;;;;;;;1.37;0.80;;;;;;;;;;6256191;22;20693;-87
2024/01/02 07:53:54;;;;;;;1.10;1.00;;;;;;;;;;6256241;22;20365;-87
2024/01/02 07:56:21;;;;;;;0.90;0.67;;;;;;;;;;6280695;22;20420;-87
2024/01/02 07:58:47;;;;;;;0.80;0.60;;;;;;;;;;6255771;22;20378;-87
2024/01/02 08:01:13;;;;;;;2.07;0.60;;;;;;;;;;6257067;22;20393;-87
2024/01/02 08:03:39;;;;;;;0.73;0.60;;;;;;;;;;6258531;22;20382;-90
2024/01/02 08:06:05;;;;;;;1.60;0.80;;;;;;;;;;6281266;22;20369;-90
2024/01/02 08:08:31;;;;;;;1.00;0.90;;;;;;;;;;6256544;22;20392;-91
2024/01/02 08:10:57;;;;;;;0.60;0.50;;;;;;;;;;6256825;22;20417;-91
2024/01/02 08:13:25;;;;;;;0.80;0.80;;;;;;;;;;6258076;22;20373;-90
2024/01/02 08:15:51;;;;;;;1.53;1.43;;;;;;;;;;6257491;22;20567;-89
2024/01/02 08:18:17;;;;;;;0.60;0.60;;;;;;;;;;6256000;22;20377;-87
2024/01/02 08:20:43;;;;;;;1.27;0.97;;;;;;;;;;6255215;22;20376;-87
2024/01/02 08:23:09;;;;;;;0.70;0.50;;;;;;;;;;6279961;22;20879;-87
2024/01/02 08:25:36;;;;;;;0.60;0.60;;;;;;;;;;6254799;22;20886;-88
2024/01/02 08:28:01;;;;;;;0.60;0.60;;;;;;;;;;6255907;22;20413;-87
2024/01/02 08:30:27;;;;;;;0.60;0.50;;;;;;;;;;6257690;22;20405;-87
2024/01/02 08:32:53;;;;;;;1.03;0.50;;;;;;;;;;6253025;22;20377;-88
2024/01/02 08:35:20;;;;;;;0.60;0.60;;;;;;;;;;6255549;22;20435;-87
2024/01/02 08:37:46;;;;;;;0.80;0.57;;;;;;;;;;6255180;22;20472;-87
2024/01/02 08:40:12;;;;;;;0.80;0.60;;;;;;;;;;6278276;22;20937;-87
2024/01/02 08:42:38;;;;;;;1.57;0.60;;;;;;;;;;6254155;22;21023;-88
2024/01/02 08:45:05;;;;;;;0.70;0.50;;;;;;;;;;6255462;22;20721;-87
2024/01/02 08:47:31;;;;;;;1.23;0.70;;;;;;;;;;6255072;22;20391;-87
2024/01/02 08:49:57;;;;;;;0.97;0.63;;;;;;;;;;6259560;22;20393;-87
2024/01/02 08:52:23;;;;;;;0.80;0.63;;;;;;;;;;6254817;22;20383;-87
2024/01/02 08:54:49;;;;;;;1.13;0.60;;;;;;;;;;6255184;22;20425;-87
2024/01/02 08:57:15;;;;;;;0.77;0.63;;;;;;;;;;6253921;22;20849;-85
2024/01/02 08:59:41;;;;;;;0.63;0.60;;;;;;;;;;6256009;22;20405;-87
2024/01/02 09:02:07;;;;;;;1.33;0.50;;;;;;;;;;6254317;22;20382;-86
2024/01/02 09:04:33;;;;;;;0.90;0.70;;;;;;;;;;6254118;22;20381;-84
2024/01/02 09:06:59;;;;;;;0.60;0.50;;;;;;;;;;6256444;22;20456;-87
2024/01/02 09:09:26;;;;;;;0.73;0.57;;;;;;;;;;6257933;22;20441;-87
2024/01/02 09:11:52;;;;;;;0.90;0.60;;;;;;;;;;6258932;22;20388;-87
2024/01/02 09:14:18;;;;;;;1.07;0.70;;;;;;;;;;6257551;22;20373;-86
2024/01/02 09:16:45;;;;;;;0.60;0.60;;;;;;;;;;6258227;22;20844;-87
2024/01/02 09:19:12;;;;;;;0.70;0.50;;;;;;;;;;6257290;22;20430;-87
2024/01/02 09:21:39;;;;;;;2.40;0.70;;;;;;;;;;6261550;22;20384;-90
2024/01/02 09:24:05;;;;;;;0.60;0.60;;;;;;;;;;6256762;22;21011;-87
2024/01/02 09:26:34;;;;;;;0.60;0.50;;;;;;;;;;6286821;22;20396;-86
2024/01/02 09:29:01;;;;;;;0.70;0.50;;;;;;;;;;6256947;22;20394;-86
2024/01/02 09:31:29;;;;;;;1.40;0.90;;;;;;;;;;6262149;22;20455;-92
2024/01/02 09:33:55;;;;;;;0.80;0.63;;;;;;;;;;6259720;22;20418;-90
2024/01/02 09:36:21;;;;;;;0.70;0.60;;;;;;;;;;6258853;22;20374;-90
2024/01/02 09:38:47;;;;;;;1.10;0.70;;;;;;;;;;6259808;22;20404;-91
2024/01/02 09:41:28;;;;;;;0.60;0.40;;;;;;;;;;6260137;22;20382;-90
2024/01/02 09:44:07;;;;;;;0.70;0.57;;;;;;;;;;6287914;22;20353;-91
2024/01/02 09:46:39;;;;;;;0.80;0.50;;;;;;;;;;6288815;22;20372;-91
2024/01/02 09:49:05;;;;;;;0.70;0.50;;;;;;;;;;6285527;22;20364;-90
2024/01/02 09:51:31;;;;;;;1.47;0.67;;;;;;;;;;6289144;22;20433;-86
2024/01/02 09:54:00;;;;;;;0.80;0.60;;;;;;;;;;6281669;22;20373;-86
2024/01/02 09:56:36;;;;;;;1.10;0.60;;;;;;;;;;6280973;22;20450;-86
2024/01/02 09:59:09;;;;;;;0.70;0.67;;;;;;;;;;6252421;22;20381;-87
2024/01/02 10:01:41;;;;;;;0.60;0.60;;;;;;;;;;6282260;22;20603;-86
2024/01/02 10:04:19;;;;;;;0.70;0.60;;;;;;;;;;6277550;22;20947;-87
2024/01/02 10:06:57;;;;;;;0.80;0.50;;;;;;;;;;6277032;22;20415;-87
2024/01/02 10:09:26;;;;;;;0.70;0.60;;;;;;;;;;6275357;22;20451;-87
2024/01/02 10:11:59;;;;;;;0.80;0.70;;;;;;;;;;6276683;22;20384;-87
2024/01/02 10:14:25;;;;;;;0.60;0.50;;;;;;;;;;6249862;22;20377;-86
2024/01/02 10:17:11;;;;;;;0.60;0.50;;;;;;;;;;6277567;22;21413;-86
2024/01/02 10:19:41;;;;;;;0.90;0.60;;;;;;;;;;6276812;22;20408;-87
2024/01/02 10:22:25;;;;;;;0.70;0.60;;;;;;;;;;6277982;22;20451;-86
2024/01/02 10:24:53;;;;;;;0.70;0.60;;;;;;;;;;6281393;22;20397;-87
2024/01/02 10:27:27;;;;;;;1.13;0.57;;;;;;;;;;6255173;22;20984;-86
2024/01/02 10:29:59;;;;;;;0.90;0.70;;;;;;;;;;6252026;22;20451;-86
2024/01/02 10:32:28;;;;;;;1.80;0.60;;;;;;;;;;6283331;22;20369;-87
2024/01/02 10:34:54;;;;;;;0.60;0.60;;;;;;;;;;6251728;22;20401;-86
2024/01/02 10:37:21;;;;;;;0.60;0.50;;;;;;;;;;6280232;22;20987;-86
2024/01/02 10:39:48;;;;;;;1.03;0.63;;;;;;;;;;6257664;22;20848;-86
2024/01/02 10:42:33;;;;;;;0.87;0.70;;;;;;;;;;6257302;22;20381;-85
2024/01/02 10:44:59;;;;;;;0.70;0.67;;;;;;;;;;6281360;22;20396;-85
2024/01/02 10:47:28;;;;;;;0.60;0.40;;;;;;;;;;6281054;22;20377;-86
2024/01/02 10:50:04;;;;;;;0.90;0.90;;;;;;;;;;6279641;22;20413;-86
2024/01/02 10:52:46;;;;;;;0.80;0.60;;;;;;;;;;6257924;22;20824;-86
2024/01/02 10:55:28;;;;;;;0.80;0.60;;;;;;;;;;6256451;22;20365;-86
2024/01/02 10:58:02;;;;;;;0.70;0.50;;;;;;;;;;6254762;22;20724;-87
2024/01/02 11:00:32;;;;;;;0.80;0.67;;;;;;;;;;6252991;22;21023;-86
2024/01/02 11:03:11;;;;;;;0.70;0.60;;;;;;;;;;6259242;22;20373;-85
2024/01/02 11:05:43;;;;;;;0.60;0.47;;;;;;;;;;6254339;22;20889;-84
2024/01/02 11:08:14;;;;;;;0.77;0.63;;;;;;;;;;6252807;22;20407;-86
2024/01/02 11:10:42;;;;;;;0.70;0.50;;;;;;;;;;6277433;22;20421;-85
2024/01/02 11:13:08;;;;;;;1.00;0.53;;;;;;;;;;6253471;22;20396;-86
2024/01/02 11:15:38;;;;;;;0.60;0.50;;;;;;;;;;6255149;22;20377;-85
2024/01/02 11:18:04;;;;;;;0.70;0.60;;;;;;;;;;6256843;22;20382;-84
2024/01/02 11:20:42;;;;;;;0.60;0.50;;;;;;;;;;6254319;22;20389;-85
2024/01/02 11:23:13;;;;;;;0.60;0.50;;;;;;;;;;6256382;22;20393;-84
2024/01/02 11:25:50;;;;;;;1.53;0.73;;;;;;;;;;6254526;22;20443;-85
2024/01/02 11:28:17;;;;;;;0.63;0.50;;;;;;;;;;6256822;22;20427;-85
2024/01/02 11:30:43;;;;;;;0.80;0.60;;;;;;;;;;6255333;22;20504;-85
2024/01/02 11:33:09;;;;;;;0.60;0.50;;;;;;;;;;6283278;22;20843;-85
2024/01/02 11:35:45;;;;;;;0.87;0.87;;;;;;;;;;6278925;22;20373;-86
2024/01/02 11:38:12;;;;;;;1.10;0.70;;;;;;;;;;6257741;22;20372;-86
2024/01/02 11:40:44;;;;;;;1.00;0.70;;;;;;;;;;6280023;22;20374;-86
2024/01/02 11:43:13;;;;;;;0.70;0.67;;;;;;;;;;6282821;22;20380;-86
2024/01/02 11:45:39;;;;;;;0.80;0.70;;;;;;;;;;6254367;22;20385;-86
2024/01/02 11:48:19;;;;;;;0.80;0.60;;;;;;;;;;6255329;22;20444;-86
2024/01/02 11:50:52;;;;;;;0.60;0.50;;;;;;;;;;6253946;22;20489;-86
2024/01/02 11:53:37;;;;;;;0.73;0.60;;;;;;;;;;6277797;22;20460;-86
2024/01/02 11:56:05;;;;;;;0.70;0.50;;;;;;;;;;6277547;22;20357;-85
2024/01/02 11:58:41;;;;;;;0.70;0.63;;;;;;;;;;6255337;22;21079;-85
2024/01/02 12:01:15;;;;;;;0.90;0.50;;;;;;;;;;6254667;22;20790;-86
2024/01/02 12:03:54;;;;;;;0.63;0.50;;;;;;;;;;6282808;22;20353;-86
2024/01/02 12:06:35;;;;;;;1.17;0.50;;;;;;;;;;6279055;22;20378;-89
2024/01/02 12:09:04;;;;;;;1.90;0.60;;;;;;;;;;6257339;22;20407;-86
2024/01/02 12:11:30;;;;;;;0.70;0.50;;;;;;;;;;6253658;22;20501;-86
2024/01/02 12:13:58;;;;;;;1.00;0.67;;;;;;;;;;6254725;22;20383;-88
2024/01/02 12:16:24;;;;;;;0.80;0.60;;;;;;;;;;6279736;22;20796;-89
2024/01/02 12:18:51;;;;;;;0.70;0.60;;;;;;;;;;6254912;22;20403;-89
2024/01/02 12:21:22;;;;;;;0.87;0.63;;;;;;;;;;6255050;22;20401;-88
2024/01/02 12:23:49;;;;;;;0.80;0.60;;;;;;;;;;6279947;22;20403;-86
2024/01/02 12:26:15;;;;;;;0.70;0.50;;;;;;;;;;6254255;22;20384;-86
2024/01/02 12:28:41;;;;;;;0.60;0.50;;;;;;;;;;6254677;22;20389;-89
2024/01/02 12:31:22;;;;;;;0.90;0.60;;;;;;;;;;6254419;22;20409;-89
2024/01/02 12:33:49;;;;;;;0.63;0.57;;;;;;;;;;6282832;22;20369;-89
2024/01/02 12:36:28;;;;;;;0.70;0.50;;;;;;;;;;6252843;22;20900;-86
2024/01/02 12:38:55;;;;;;;0.90;0.70;;;;;;;;;;6256548;22;20387;-86
2024/01/02 12:41:25;;;;;;;1.00;0.60;;;;;;;;;;6252323;22;20759;-87
2024/01/02 12:43:53;;;;;;;0.70;0.60;;;;;;;;;;6256298;22;20719;-88
2024/01/02 12:46:30;;;;;;;0.70;0.50;;;;;;;;;;6251086;22;20907;-87
2024/01/02 12:49:08;;;;;;;0.77;0.50;;;;;;;;;;6251544;22;20435;-87
2024/01/02 12:51:34;;;;;;;0.70;0.63;;;;;;;;;;6252632;22;20449;-86
2024/01/02 12:54:01;;;;;;;0.80;0.70;;;;;;;;;;6253162;22;20860;-86
2024/01/02 12:56:31;;;;;;;0.70;0.60;;;;;;;;;;6251323;22;20388;-86
2024/01/02 12:58:57;;;;;;;0.63;0.57;;;;;;;;;;6253957;22;20381;-89
2024/01/02 13:01:23;;;;;;;0.80;0.80;;;;;;;;;;6253204;22;20380;-87
2024/01/02 13:03:49;;;;;;;0.80;0.70;;;;;;;;;;6280893;22;20365;-89
2024/01/02 13:06:15;;;;;;;0.60;0.50;;;;;;;;;;6252382;22;20378;-86
2024/01/02 13:08:42;;;;;;;0.60;0.50;;;;;;;;;;6258065;22;20381;-87
2024/01/02 13:11:09;;;;;;;1.00;0.60;;;;;;;;;;6278139;22;20458;-87
2024/01/02 13:13:35;;;;;;;0.80;0.60;;;;;;;;;;6258177;22;20439;-87
2024/01/02 13:16:01;;;;;;;0.73;0.50;;;;;;;;;;6253414;22;20381;-86
2024/01/02 13:18:28;;;;;;;1.10;0.50;;;;;;;;;;6254546;22;20428;-87
2024/01/02 13:20:57;;;;;;;2.40;0.70;;;;;;;;;;6254275;22;21179;-87
2024/01/02 13:23:23;;;;;;;0.80;0.60;;;;;;;;;;6254171;22;20401;-87
2024/01/02 13:25:49;;;;;;;1.13;0.70;;;;;;;;;;6252850;22;20434;-87
2024/01/02 13:28:18;;;;;;;0.80;0.63;;;;;;;;;;6255014;22;20380;-87
2024/01/02 13:30:49;;;;;;;1.33;1.13;;;;;;;;;;6278888;22;20416;-87
2024/01/02 13:33:15;;;;;;;1.47;0.90;;;;;;;;;;6254258;22;20401;-86
2024/01/02 13:35:45;;;;;;;0.70;0.60;;;;;;;;;;6252795;22;20381;-86
2024/01/02 13:38:14;;;;;;;1.00;0.70;;;;;;;;;;6254189;22;20384;-87
2024/01/02 13:40:40;;;;;;;0.60;0.50;;;;;;;;;;6253718;22;20373;-87
2024/01/02 13:43:06;;;;;;;1.10;0.60;;;;;;;;;;6253154;22;20366;-87
2024/01/02 13:45:32;;;;;;;1.03;0.70;;;;;;;;;;6253114;22;20392;-86
2024/01/02 13:48:31;;;;;;;0.70;0.70;;;;;;;;;;6250054;22;20389;-86
2024/01/02 13:50:57;;;;;;;0.70;0.60;;;;;;;;;;6279082;22;20436;-85
2024/01/02 13:53:24;;;;;;;2.00;0.60;;;;;;;;;;6250756;22;20377;-86
2024/01/02 13:55:50;;;;;;;2.20;0.67;;;;;;;;;;6275876;22;20878;-86
2024/01/02 13:58:16;;;;;;;0.80;0.70;;;;;;;;;;6249321;22;20454;-86
2024/01/02 14:00:45;;;;;;;0.63;0.53;;;;;;;;;;6252055;22;20467;-86
2024/01/02 14:03:11;;;;;;;0.73;0.50;;;;;;;;;;6251311;22;20384;-85
2024/01/02 14:05:40;;;;;;;0.70;0.60;;;;;;;;;;6256147;22;20852;-85
2024/01/02 14:08:06;;;;;;;1.17;0.80;;;;;;;;;;6220512;23;20394;-86
2024/01/02 14:10:33;;;;;;;0.90;0.60;;;;;;;;;;6224556;23;20467;-89
2024/01/02 14:13:00;;;;;;;0.60;0.50;;;;;;;;;;6223062;23;20389;-86
2024/01/02 14:15:28;;;;;;;0.60;0.43;;;;;;;;;;6227717;23;20389;-88
2024/01/02 14:17:58;;;;;;;0.80;0.50;;;;;;;;;;6220674;23;20400;-87
2024/01/02 14:20:24;;;;;;;0.70;0.60;;;;;;;;;;6249723;23;20429;-88
2024/01/02 14:22:54;;;;;;;0.73;0.73;;;;;;;;;;6220515;22;20387;-85
2024/01/02 14:25:26;;;;;;;0.90;0.60;;;;;;;;;;6248325;23;20465;-87
2024/01/02 14:27:56;;;;;;;0.70;0.60;;;;;;;;;;6246922;23;20386;-86
2024/01/02 14:30:37;;;;;;;1.03;0.60;;;;;;;;;;6222802;23;20492;-88
2024/01/02 14:33:03;;;;;;;0.63;0.50;;;;;;;;;;6220852;23;20382;-87
2024/01/02 14:35:34;;;;;;;0.83;0.57;;;;;;;;;;6246488;23;20403;-87
2024/01/02 14:38:00;;;;;;;0.80;0.50;;;;;;;;;;6221528;23;20389;-88
2024/01/02 14:40:26;;;;;;;0.80;0.60;;;;;;;;;;6220271;23;20401;-87
2024/01/02 14:43:05;;;;;;;0.70;0.60;;;;;;;;;;6199471;22;20374;-87
2024/01/02 14:45:32;;;;;;;0.90;0.80;;;;;;;;;;6255418;22;20384;-87
2024/01/02 14:48:07;;;;;;;0.60;0.50;;;;;;;;;;6255003;22;20412;-89
2024/01/02 14:50:34;;;;;;;1.37;1.27;;;;;;;;;;6284316;22;20436;-90
2024/01/02 14:53:13;;;;;;;0.80;0.70;;;;;;;;;;6257673;22;20405;-86
2024/01/02 14:56:02;;;;;;;0.70;0.70;;;;;;;;;;6281100;22;20377;-87
2024/01/02 14:58:46;;;;;;;0.70;0.60;;;;;;;;;;6254263;22;20374;-88
2024/01/02 15:01:16;;;;;;;0.60;0.50;;;;;;;;;;6282533;22;20370;-87
2024/01/02 15:03:48;;;;;;;1.20;0.77;;;;;;;;;;6254435;22;20404;-87
2024/01/02 15:06:14;;;;;;;0.70;0.70;;;;;;;;;;6258150;22;20380;-89
2024/01/02 15:08:56;;;;;;;0.70;0.70;;;;;;;;;;6255409;22;20377;-87
2024/01/02 15:11:31;;;;;;;0.80;0.67;;;;;;;;;;6281131;22;20503;-85
2024/01/02 15:14:08;;;;;;;1.00;0.77;;;;;;;;;;6281380;22;20422;-88